createdAt,value
2017-08-08T00:00:34.631Z,65.60
2017-08-08T00:05:37.824Z,65.70
2017-08-08T00:10:41.781Z,65.90
2017-08-08T00:15:44.956Z,65.90
2017-08-08T00:20:48.130Z,66.20
2017-08-08T00:25:51.318Z,66.10
2017-08-08T00:30:54.574Z,66.70
2017-08-08T00:35:58.520Z,67.00
2017-08-08T00:41:01.703Z,66.70
2017-08-08T00:46:05.681Z,66.90
2017-08-08T00:51:08.862Z,66.90
2017-08-08T00:56:12.122Z,67.30
2017-08-08T01:01:15.457Z,68.00
2017-08-08T01:06:19.393Z,68.40
2017-08-08T01:11:22.569Z,68.30
2017-08-08T01:16:26.517Z,67.70
2017-08-08T01:21:29.710Z,67.70
2017-08-08T01:26:32.888Z,68.20
2017-08-08T01:31:36.078Z,68.50
2017-08-08T01:36:39.317Z,68.50
2017-08-08T01:41:43.245Z,69.10
2017-08-08T01:46:47.222Z,69.50
2017-08-08T01:51:50.398Z,69.50
2017-08-08T01:56:53.565Z,69.60
2017-08-08T02:01:56.728Z,69.60
2017-08-08T02:06:59.911Z,69.90
2017-08-08T02:12:03.098Z,70.90
2017-08-08T02:17:06.495Z,70.60
2017-08-08T02:22:09.639Z,70.50
2017-08-08T02:27:12.796Z,70.90
2017-08-08T02:32:15.966Z,71.40
2017-08-08T02:37:19.139Z,72.20
2017-08-08T02:42:23.085Z,73.30
2017-08-08T02:47:26.286Z,73.30
2017-08-08T02:52:29.486Z,73.40
2017-08-08T02:57:32.702Z,73.10
2017-08-08T03:02:36.661Z,72.10
2017-08-08T03:07:39.977Z,72.00
2017-08-08T03:12:43.182Z,71.10
2017-08-08T03:17:46.350Z,70.10
2017-08-08T03:22:49.514Z,69.80
2017-08-08T03:27:52.713Z,69.80
2017-08-08T03:32:55.871Z,69.70
2017-08-08T03:37:59.235Z,69.80
2017-08-08T03:43:02.453Z,69.60
2017-08-08T03:48:05.637Z,69.20
2017-08-08T03:53:08.837Z,68.70
2017-08-08T03:58:12.009Z,68.90
2017-08-08T04:03:15.196Z,69.20
2017-08-08T04:08:18.377Z,69.20
2017-08-08T04:13:21.566Z,69.60
2017-08-08T04:18:24.812Z,70.00
2017-08-08T04:23:28.758Z,70.60
2017-08-08T04:28:31.937Z,70.60
2017-08-08T04:33:35.866Z,71.50
2017-08-08T04:38:39.813Z,71.00
2017-08-08T04:43:43.024Z,71.00
2017-08-08T04:48:46.222Z,71.00
2017-08-08T04:53:49.406Z,71.40
2017-08-08T04:58:53.396Z,71.40
2017-08-08T05:03:56.609Z,71.30
2017-08-08T05:08:59.844Z,71.20
2017-08-08T05:14:03.781Z,71.20
2017-08-08T05:19:06.982Z,71.20
2017-08-08T05:24:10.181Z,70.90
2017-08-08T05:29:14.133Z,68.70
2017-08-08T05:34:17.314Z,68.60
2017-08-08T05:39:21.263Z,66.90
2017-08-08T05:44:24.450Z,66.90
2017-08-08T05:49:28.420Z,67.40
2017-08-08T05:54:31.631Z,67.40
2017-08-08T05:59:34.810Z,66.50
2017-08-08T06:04:37.982Z,66.70
2017-08-08T06:09:41.948Z,65.70
2017-08-08T06:14:45.236Z,65.60
2017-08-08T06:19:49.177Z,63.90
2017-08-08T06:24:52.368Z,63.90
2017-08-08T06:29:56.333Z,62.70
2017-08-08T06:34:59.513Z,62.70
2017-08-08T06:40:02.693Z,63.70
2017-08-08T06:45:06.679Z,63.30
2017-08-08T06:50:09.940Z,63.30
2017-08-08T06:55:13.870Z,64.20
2017-08-08T07:00:17.045Z,64.10
2017-08-08T07:05:20.978Z,65.00
2017-08-08T07:10:24.947Z,64.20
2017-08-08T07:15:28.114Z,64.20
2017-08-08T07:20:32.056Z,64.80
2017-08-08T07:25:35.253Z,64.70
2017-08-08T07:30:38.429Z,65.30
2017-08-08T07:35:41.598Z,64.60
2017-08-08T07:40:44.792Z,64.30
2017-08-08T07:45:47.981Z,64.00
2017-08-08T07:50:51.180Z,64.20
2017-08-08T07:55:54.362Z,64.70
2017-08-08T08:00:57.552Z,64.10
2017-08-08T08:06:00.751Z,64.40
2017-08-08T08:11:03.937Z,64.40
2017-08-08T08:16:07.110Z,63.20
2017-08-08T08:21:10.294Z,62.70
2017-08-08T08:26:13.485Z,61.60
2017-08-08T08:31:16.678Z,61.50
2017-08-08T08:36:19.877Z,61.30
2017-08-08T08:41:23.049Z,61.50
2017-08-08T08:46:26.982Z,60.90
2017-08-08T08:51:30.163Z,60.90
2017-08-08T08:56:34.137Z,59.60
2017-08-08T09:01:37.319Z,59.60
2017-08-08T09:06:40.492Z,59.80
2017-08-08T09:11:44.430Z,62.60
2017-08-08T09:16:48.373Z,63.00
2017-08-08T09:21:51.569Z,63.00
2017-08-08T09:26:55.494Z,62.70
2017-08-08T09:31:58.696Z,61.90
2017-08-08T09:37:01.920Z,61.60
2017-08-08T09:42:05.094Z,60.80
2017-08-08T09:47:09.057Z,60.70
2017-08-08T09:52:12.230Z,60.70
2017-08-08T09:57:15.406Z,61.80
2017-08-08T10:02:18.609Z,65.40
2017-08-08T10:07:21.774Z,66.20
2017-08-08T10:12:24.972Z,66.00
2017-08-08T10:17:28.411Z,68.70
2017-08-08T10:22:31.630Z,71.00
2017-08-08T10:27:34.786Z,73.30
2017-08-08T10:32:38.750Z,74.40
2017-08-08T10:37:41.940Z,74.50
2017-08-08T10:42:45.235Z,72.90
2017-08-08T10:47:49.187Z,69.40
2017-08-08T10:52:52.372Z,69.30
2017-08-08T10:57:55.545Z,68.00
2017-08-08T11:02:58.761Z,66.90
2017-08-08T11:08:01.943Z,66.20
2017-08-08T11:13:05.148Z,66.30
2017-08-08T11:18:08.341Z,65.40
2017-08-08T11:23:11.546Z,65.60
2017-08-08T11:28:14.719Z,66.50
2017-08-08T11:33:17.888Z,67.90
2017-08-08T11:38:21.085Z,69.50
2017-08-08T11:43:24.290Z,70.10
2017-08-08T11:48:27.462Z,72.30
2017-08-08T11:53:30.642Z,75.50
2017-08-08T11:58:33.829Z,76.10
2017-08-08T12:03:37.786Z,79.60
2017-08-08T12:08:40.990Z,79.50
2017-08-08T12:13:44.182Z,78.40
2017-08-08T12:18:48.145Z,78.60
2017-08-08T12:23:51.335Z,78.60
2017-08-08T12:28:54.513Z,77.20
2017-08-08T12:33:57.745Z,75.80
2017-08-08T12:39:00.931Z,74.60
2017-08-08T12:44:04.127Z,73.70
2017-08-08T12:49:08.165Z,71.40
2017-08-08T12:54:12.130Z,68.90
2017-08-08T12:59:15.315Z,68.80
2017-08-08T13:04:18.502Z,66.60
2017-08-08T13:09:21.690Z,66.00
2017-08-08T13:14:25.647Z,63.40
2017-08-08T13:19:28.850Z,63.30
2017-08-08T13:24:32.039Z,63.30
2017-08-08T13:29:35.957Z,61.30
2017-08-08T13:34:39.883Z,61.50
2017-08-08T13:39:43.806Z,62.70
2017-08-08T13:44:47.001Z,62.70
2017-08-08T13:49:50.955Z,66.10
2017-08-08T13:54:54.257Z,65.80
2017-08-08T13:59:58.208Z,67.30
2017-08-08T14:05:01.390Z,67.20
2017-08-08T14:10:04.567Z,66.20
2017-08-08T14:15:07.799Z,65.40
2017-08-08T14:20:10.981Z,65.60
2017-08-08T14:25:14.165Z,66.60
2017-08-08T14:30:17.351Z,67.50
2017-08-08T14:35:20.520Z,69.80
2017-08-08T14:40:24.495Z,71.60
2017-08-08T14:45:27.682Z,71.60
2017-08-08T14:50:30.851Z,68.20
2017-08-08T14:55:34.823Z,61.90
2017-08-08T15:00:38.049Z,61.90
2017-08-08T15:05:41.419Z,60.60
2017-08-08T15:10:44.606Z,60.50
2017-08-08T15:15:47.797Z,60.70
2017-08-08T15:20:51.784Z,60.70
2017-08-08T15:25:54.990Z,60.60
2017-08-08T15:30:58.186Z,60.40
2017-08-08T15:36:01.546Z,61.60
2017-08-08T15:41:04.734Z,61.30
2017-08-08T15:46:07.929Z,59.40
2017-08-08T15:51:11.159Z,59.40
2017-08-08T15:56:14.369Z,57.70
2017-08-08T16:01:17.575Z,54.70
2017-08-08T16:06:20.818Z,53.60
2017-08-08T16:11:24.015Z,53.80
2017-08-08T16:16:27.975Z,54.20
2017-08-08T16:21:31.184Z,54.20
2017-08-08T16:26:34.416Z,55.10
2017-08-08T16:31:37.595Z,55.60
2017-08-08T16:36:40.797Z,55.80
2017-08-08T16:41:43.986Z,54.80
2017-08-08T16:46:47.149Z,53.80
2017-08-08T16:51:50.354Z,55.10
2017-08-08T16:56:53.555Z,55.50
2017-08-08T17:01:56.801Z,56.50
2017-08-08T17:06:59.973Z,58.40
2017-08-08T17:12:03.216Z,59.00
2017-08-08T17:17:07.154Z,57.50
2017-08-08T17:22:10.346Z,57.50
2017-08-08T17:27:13.541Z,57.60
2017-08-08T17:32:17.575Z,56.40
2017-08-08T17:37:21.543Z,56.50
2017-08-08T17:42:24.767Z,56.40
2017-08-08T17:47:28.038Z,56.20
2017-08-08T17:52:31.239Z,56.60
2017-08-08T17:57:34.426Z,55.50
2017-08-08T18:02:38.381Z,56.50
2017-08-08T18:07:41.702Z,56.50
2017-08-08T18:12:44.887Z,56.40
2017-08-08T18:17:48.083Z,56.30
2017-08-08T18:22:51.294Z,57.20
2017-08-08T18:27:54.504Z,57.80
2017-08-08T18:32:57.676Z,58.30
2017-08-08T18:38:00.903Z,59.00
2017-08-08T18:43:04.110Z,59.70
2017-08-08T18:48:09.490Z,60.80
2017-08-08T18:53:12.747Z,60.80
2017-08-08T18:58:16.016Z,60.60
2017-08-08T19:03:19.187Z,60.60
2017-08-08T19:08:22.405Z,61.40
2017-08-08T19:13:25.786Z,61.70
2017-08-08T19:18:29.027Z,61.40
2017-08-08T19:23:32.225Z,62.20
2017-08-08T19:28:35.489Z,62.70
2017-08-08T19:33:38.713Z,63.70
2017-08-08T19:38:41.949Z,64.50
2017-08-08T19:43:45.196Z,65.30
2017-08-08T19:48:48.428Z,66.10
2017-08-08T19:53:51.657Z,66.30
2017-08-08T19:58:55.643Z,65.90
2017-08-08T20:03:58.899Z,65.80
2017-08-08T20:09:04.070Z,66.00
2017-08-08T20:14:07.298Z,66.00
2017-08-08T20:19:10.541Z,66.20
2017-08-08T20:24:13.766Z,66.90
2017-08-08T20:29:17.741Z,67.20
2017-08-08T20:34:20.988Z,67.10
2017-08-08T20:39:24.229Z,66.70
2017-08-08T20:44:27.422Z,66.40
2017-08-08T20:49:31.300Z,66.60
2017-08-08T20:54:34.516Z,66.60
2017-08-08T20:59:37.717Z,66.30
2017-08-08T21:04:40.946Z,66.80
2017-08-08T21:09:44.174Z,66.70
2017-08-08T21:14:48.211Z,66.80
2017-08-08T21:19:51.505Z,66.80
2017-08-08T21:24:55.453Z,68.40
2017-08-08T21:29:58.696Z,67.60
2017-08-08T21:35:01.907Z,68.00
2017-08-08T21:40:05.144Z,67.90
2017-08-08T21:45:08.282Z,67.50
2017-08-08T21:50:11.462Z,67.90
2017-08-08T21:55:15.393Z,70.20
2017-08-08T22:00:18.551Z,70.20
2017-08-08T22:05:21.749Z,69.80
2017-08-08T22:10:24.921Z,71.80
2017-08-08T22:15:28.096Z,72.60
2017-08-08T22:20:31.282Z,72.60
2017-08-08T22:25:34.572Z,72.70
2017-08-08T22:30:37.777Z,73.40
2017-08-08T22:35:40.952Z,73.60
2017-08-08T22:40:44.144Z,73.90
2017-08-08T22:45:48.094Z,74.60
2017-08-08T22:50:51.283Z,74.50
2017-08-08T22:55:55.252Z,76.70
2017-08-08T23:00:58.413Z,76.70
2017-08-08T23:06:01.688Z,76.80
2017-08-08T23:11:04.871Z,76.60
2017-08-08T23:16:08.064Z,75.10
2017-08-08T23:21:11.275Z,76.10
2017-08-08T23:26:14.453Z,77.10
2017-08-08T23:31:18.416Z,77.10
2017-08-08T23:36:21.577Z,77.00
2017-08-08T23:41:24.767Z,76.50
2017-08-08T23:46:27.946Z,74.80
2017-08-08T23:51:31.365Z,74.70
2017-08-08T23:56:34.561Z,74.60
